sensor_id;sensor_type;location;lat;lon;timestamp;P1;durP1;ratioP1;P2;durP2;ratioP2
21458;SDS011;10891;49.350;19.386;2024-02-14T00:01:50;13.48;;;7.32;;
21458;SDS011;10891;49.350;19.386;2024-02-14T00:04:18;31.60;;;14.05;;
21458;SDS011;10891;49.350;19.386;2024-02-14T00:06:45;12.18;;;6.53;;
21458;SDS011;10891;49.350;19.386;2024-02-14T00:09:13;11.00;;;6.00;;
21458;SDS011;10891;49.350;19.386;2024-02-14T00:11:40;13.02;;;6.20;;
21458;SDS011;10891;49.350;19.386;2024-02-14T00:14:08;22.20;;;11.93;;
21458;SDS011;10891;49.350;19.386;2024-02-14T00:16:35;8.35;;;5.00;;
21458;SDS011;10891;49.350;19.386;2024-02-14T00:19:04;13.18;;;6.18;;
21458;SDS011;10891;49.350;19.386;2024-02-14T00:21:31;13.43;;;6.03;;
21458;SDS011;10891;49.350;19.386;2024-02-14T00:23:59;14.05;;;6.75;;
21458;SDS011;10891;49.350;19.386;2024-02-14T00:26:26;12.85;;;7.47;;
21458;SDS011;10891;49.350;19.386;2024-02-14T00:28:54;13.30;;;7.15;;
21458;SDS011;10891;49.350;19.386;2024-02-14T00:31:22;11.02;;;5.30;;
21458;SDS011;10891;49.350;19.386;2024-02-14T00:33:49;9.50;;;4.88;;
21458;SDS011;10891;49.350;19.386;2024-02-14T00:36:16;11.73;;;6.32;;
21458;SDS011;10891;49.350;19.386;2024-02-14T00:38:43;12.05;;;5.32;;
21458;SDS011;10891;49.350;19.386;2024-02-14T00:41:11;9.27;;;5.07;;
21458;SDS011;10891;49.350;19.386;2024-02-14T00:43:38;10.48;;;7.03;;
21458;SDS011;10891;49.350;19.386;2024-02-14T00:46:05;12.98;;;7.10;;
21458;SDS011;10891;49.350;19.386;2024-02-14T00:48:33;12.10;;;7.35;;
21458;SDS011;10891;49.350;19.386;2024-02-14T00:51:01;17.02;;;7.88;;
21458;SDS011;10891;49.350;19.386;2024-02-14T00:53:28;12.70;;;6.82;;
21458;SDS011;10891;49.350;19.386;2024-02-14T00:55:55;8.30;;;4.25;;
21458;SDS011;10891;49.350;19.386;2024-02-14T00:58:22;6.97;;;4.03;;
21458;SDS011;10891;49.350;19.386;2024-02-14T01:00:49;11.93;;;5.32;;
21458;SDS011;10891;49.350;19.386;2024-02-14T01:03:16;9.63;;;5.00;;
21458;SDS011;10891;49.350;19.386;2024-02-14T01:05:45;6.30;;;4.07;;
21458;SDS011;10891;49.350;19.386;2024-02-14T01:08:12;7.93;;;4.00;;
21458;SDS011;10891;49.350;19.386;2024-02-14T01:10:39;9.10;;;3.92;;
21458;SDS011;10891;49.350;19.386;2024-02-14T01:13:06;12.32;;;6.25;;
21458;SDS011;10891;49.350;19.386;2024-02-14T01:15:34;11.32;;;5.25;;
21458;SDS011;10891;49.350;19.386;2024-02-14T01:18:01;13.40;;;6.57;;
21458;SDS011;10891;49.350;19.386;2024-02-14T01:20:28;10.98;;;5.60;;
21458;SDS011;10891;49.350;19.386;2024-02-14T01:22:57;9.63;;;5.85;;
21458;SDS011;10891;49.350;19.386;2024-02-14T01:25:25;9.32;;;4.88;;
21458;SDS011;10891;49.350;19.386;2024-02-14T01:27:52;5.93;;;3.92;;
21458;SDS011;10891;49.350;19.386;2024-02-14T01:30:19;6.20;;;4.03;;
21458;SDS011;10891;49.350;19.386;2024-02-14T01:32:47;9.63;;;5.20;;
21458;SDS011;10891;49.350;19.386;2024-02-14T01:35:14;15.18;;;7.15;;
21458;SDS011;10891;49.350;19.386;2024-02-14T01:37:41;11.52;;;6.00;;
21458;SDS011;10891;49.350;19.386;2024-02-14T01:40:12;9.63;;;4.35;;
21458;SDS011;10891;49.350;19.386;2024-02-14T01:42:39;9.45;;;5.32;;
21458;SDS011;10891;49.350;19.386;2024-02-14T01:45:06;13.90;;;6.75;;
21458;SDS011;10891;49.350;19.386;2024-02-14T01:47:34;12.57;;;7.38;;
21458;SDS011;10891;49.350;19.386;2024-02-14T01:50:01;10.10;;;6.25;;
21458;SDS011;10891;49.350;19.386;2024-02-14T01:52:29;10.20;;;4.55;;
21458;SDS011;10891;49.350;19.386;2024-02-14T01:54:56;7.47;;;4.60;;
21458;SDS011;10891;49.350;19.386;2024-02-14T01:57:25;6.95;;;4.60;;
21458;SDS011;10891;49.350;19.386;2024-02-14T01:59:52;8.30;;;4.63;;
21458;SDS011;10891;49.350;19.386;2024-02-14T02:02:20;12.63;;;5.72;;
21458;SDS011;10891;49.350;19.386;2024-02-14T02:04:48;11.95;;;5.72;;
21458;SDS011;10891;49.350;19.386;2024-02-14T02:07:15;10.43;;;5.22;;
21458;SDS011;10891;49.350;19.386;2024-02-14T02:09:44;13.90;;;5.85;;
21458;SDS011;10891;49.350;19.386;2024-02-14T02:12:11;16.42;;;8.50;;
21458;SDS011;10891;49.350;19.386;2024-02-14T02:14:40;11.20;;;6.18;;
21458;SDS011;10891;49.350;19.386;2024-02-14T02:17:07;14.77;;;6.18;;
21458;SDS011;10891;49.350;19.386;2024-02-14T02:19:36;11.90;;;5.63;;
21458;SDS011;10891;49.350;19.386;2024-02-14T02:22:03;12.88;;;5.38;;
21458;SDS011;10891;49.350;19.386;2024-02-14T02:24:32;10.50;;;5.20;;
21458;SDS011;10891;49.350;19.386;2024-02-14T02:26:59;11.60;;;5.20;;
21458;SDS011;10891;49.350;19.386;2024-02-14T02:29:26;14.77;;;6.40;;
21458;SDS011;10891;49.350;19.386;2024-02-14T02:31:53;10.23;;;5.15;;
21458;SDS011;10891;49.350;19.386;2024-02-14T02:34:20;12.18;;;4.95;;
21458;SDS011;10891;49.350;19.386;2024-02-14T02:36:47;13.07;;;6.13;;
21458;SDS011;10891;49.350;19.386;2024-02-14T02:39:15;13.80;;;6.00;;
21458;SDS011;10891;49.350;19.386;2024-02-14T02:41:44;14.02;;;6.60;;
21458;SDS011;10891;49.350;19.386;2024-02-14T02:44:12;11.93;;;6.28;;
21458;SDS011;10891;49.350;19.386;2024-02-14T02:46:39;14.27;;;6.25;;
21458;SDS011;10891;49.350;19.386;2024-02-14T02:49:09;13.68;;;6.35;;
21458;SDS011;10891;49.350;19.386;2024-02-14T02:51:39;18.83;;;7.32;;
21458;SDS011;10891;49.350;19.386;2024-02-14T02:54:06;18.35;;;9.65;;
21458;SDS011;10891;49.350;19.386;2024-02-14T02:56:33;23.95;;;9.77;;
21458;SDS011;10891;49.350;19.386;2024-02-14T02:59:02;19.20;;;9.93;;
21458;SDS011;10891;49.350;19.386;2024-02-14T03:01:34;21.00;;;9.02;;
21458;SDS011;10891;49.350;19.386;2024-02-14T03:04:01;19.17;;;8.57;;
21458;SDS011;10891;49.350;19.386;2024-02-14T03:06:28;17.48;;;8.05;;
21458;SDS011;10891;49.350;19.386;2024-02-14T03:08:56;18.02;;;8.13;;
21458;SDS011;10891;49.350;19.386;2024-02-14T03:11:23;16.52;;;7.50;;
21458;SDS011;10891;49.350;19.386;2024-02-14T03:13:51;21.02;;;8.43;;
21458;SDS011;10891;49.350;19.386;2024-02-14T03:16:20;20.70;;;8.90;;
21458;SDS011;10891;49.350;19.386;2024-02-14T03:18:49;45.90;;;29.25;;
21458;SDS011;10891;49.350;19.386;2024-02-14T03:21:17;31.65;;;14.82;;
21458;SDS011;10891;49.350;19.386;2024-02-14T03:23:44;31.48;;;12.15;;
21458;SDS011;10891;49.350;19.386;2024-02-14T03:26:12;24.83;;;11.70;;
21458;SDS011;10891;49.350;19.386;2024-02-14T03:28:39;20.75;;;10.07;;
21458;SDS011;10891;49.350;19.386;2024-02-14T03:31:06;25.25;;;12.98;;
21458;SDS011;10891;49.350;19.386;2024-02-14T03:33:37;29.83;;;14.25;;
21458;SDS011;10891;49.350;19.386;2024-02-14T03:36:04;32.60;;;14.48;;
21458;SDS011;10891;49.350;19.386;2024-02-14T03:38:31;22.45;;;10.63;;
21458;SDS011;10891;49.350;19.386;2024-02-14T03:40:58;24.45;;;12.95;;
21458;SDS011;10891;49.350;19.386;2024-02-14T03:43:26;27.88;;;14.05;;
21458;SDS011;10891;49.350;19.386;2024-02-14T03:45:53;26.77;;;13.85;;
21458;SDS011;10891;49.350;19.386;2024-02-14T03:48:21;29.90;;;15.60;;
21458;SDS011;10891;49.350;19.386;2024-02-14T03:50:49;32.17;;;17.20;;
21458;SDS011;10891;49.350;19.386;2024-02-14T03:53:17;29.38;;;14.63;;
21458;SDS011;10891;49.350;19.386;2024-02-14T03:55:44;22.23;;;9.70;;
21458;SDS011;10891;49.350;19.386;2024-02-14T03:58:11;22.98;;;11.23;;
21458;SDS011;10891;49.350;19.386;2024-02-14T04:00:40;20.40;;;10.55;;
21458;SDS011;10891;49.350;19.386;2024-02-14T04:03:11;19.40;;;8.70;;
21458;SDS011;10891;49.350;19.386;2024-02-14T04:05:38;22.48;;;10.23;;
21458;SDS011;10891;49.350;19.386;2024-02-14T04:08:07;45.35;;;21.55;;
21458;SDS011;10891;49.350;19.386;2024-02-14T04:10:35;42.55;;;19.50;;
21458;SDS011;10891;49.350;19.386;2024-02-14T04:13:03;31.45;;;15.82;;
21458;SDS011;10891;49.350;19.386;2024-02-14T04:15:30;33.35;;;16.00;;
21458;SDS011;10891;49.350;19.386;2024-02-14T04:17:57;30.50;;;15.77;;
21458;SDS011;10891;49.350;19.386;2024-02-14T04:20:25;31.20;;;14.65;;
21458;SDS011;10891;49.350;19.386;2024-02-14T04:22:52;31.30;;;17.42;;
21458;SDS011;10891;49.350;19.386;2024-02-14T04:25:20;19.95;;;10.70;;
21458;SDS011;10891;49.350;19.386;2024-02-14T04:27:47;19.73;;;10.45;;
21458;SDS011;10891;49.350;19.386;2024-02-14T04:30:15;20.33;;;11.55;;
21458;SDS011;10891;49.350;19.386;2024-02-14T04:32:42;22.25;;;12.07;;
21458;SDS011;10891;49.350;19.386;2024-02-14T04:35:09;25.65;;;12.85;;
21458;SDS011;10891;49.350;19.386;2024-02-14T04:37:38;20.48;;;11.02;;
21458;SDS011;10891;49.350;19.386;2024-02-14T04:40:08;20.50;;;12.23;;
21458;SDS011;10891;49.350;19.386;2024-02-14T04:42:37;21.75;;;12.10;;
21458;SDS011;10891;49.350;19.386;2024-02-14T04:45:04;26.20;;;11.13;;
21458;SDS011;10891;49.350;19.386;2024-02-14T04:47:32;18.40;;;10.02;;
21458;SDS011;10891;49.350;19.386;2024-02-14T04:49:59;16.92;;;8.60;;
21458;SDS011;10891;49.350;19.386;2024-02-14T04:52:29;12.18;;;8.05;;
21458;SDS011;10891;49.350;19.386;2024-02-14T04:54:56;32.25;;;13.07;;
21458;SDS011;10891;49.350;19.386;2024-02-14T04:57:23;26.00;;;13.07;;
21458;SDS011;10891;49.350;19.386;2024-02-14T04:59:51;21.02;;;10.15;;
21458;SDS011;10891;49.350;19.386;2024-02-14T05:02:19;24.73;;;11.73;;
21458;SDS011;10891;49.350;19.386;2024-02-14T05:04:46;31.10;;;16.23;;
21458;SDS011;10891;49.350;19.386;2024-02-14T05:07:13;37.08;;;16.15;;
21458;SDS011;10891;49.350;19.386;2024-02-14T05:09:41;36.58;;;18.80;;
21458;SDS011;10891;49.350;19.386;2024-02-14T05:12:09;35.13;;;16.45;;
21458;SDS011;10891;49.350;19.386;2024-02-14T05:14:37;31.25;;;16.88;;
21458;SDS011;10891;49.350;19.386;2024-02-14T05:17:06;30.13;;;16.80;;
21458;SDS011;10891;49.350;19.386;2024-02-14T05:19:33;32.63;;;17.92;;
21458;SDS011;10891;49.350;19.386;2024-02-14T05:22:01;26.83;;;15.27;;
21458;SDS011;10891;49.350;19.386;2024-02-14T05:24:28;29.38;;;10.57;;
21458;SDS011;10891;49.350;19.386;2024-02-14T05:26:56;33.90;;;15.50;;
21458;SDS011;10891;49.350;19.386;2024-02-14T05:29:23;35.55;;;17.45;;
21458;SDS011;10891;49.350;19.386;2024-02-14T05:31:50;34.20;;;15.90;;
21458;SDS011;10891;49.350;19.386;2024-02-14T05:34:21;39.05;;;21.88;;
21458;SDS011;10891;49.350;19.386;2024-02-14T05:36:49;30.50;;;18.55;;
21458;SDS011;10891;49.350;19.386;2024-02-14T05:39:16;36.30;;;25.48;;
21458;SDS011;10891;49.350;19.386;2024-02-14T05:41:44;73.50;;;29.00;;
21458;SDS011;10891;49.350;19.386;2024-02-14T05:44:11;42.03;;;18.13;;
21458;SDS011;10891;49.350;19.386;2024-02-14T05:46:38;41.75;;;25.55;;
21458;SDS011;10891;49.350;19.386;2024-02-14T05:49:06;31.58;;;18.98;;
21458;SDS011;10891;49.350;19.386;2024-02-14T05:51:35;24.83;;;14.25;;
21458;SDS011;10891;49.350;19.386;2024-02-14T05:54:02;23.45;;;12.15;;
21458;SDS011;10891;49.350;19.386;2024-02-14T05:56:29;32.55;;;12.45;;
21458;SDS011;10891;49.350;19.386;2024-02-14T05:58:56;26.25;;;16.55;;
21458;SDS011;10891;49.350;19.386;2024-02-14T06:01:23;27.48;;;14.45;;
21458;SDS011;10891;49.350;19.386;2024-02-14T06:03:51;16.25;;;10.07;;
21458;SDS011;10891;49.350;19.386;2024-02-14T06:06:18;20.10;;;10.75;;
21458;SDS011;10891;49.350;19.386;2024-02-14T06:08:46;16.15;;;8.93;;
21458;SDS011;10891;49.350;19.386;2024-02-14T06:11:13;24.45;;;9.70;;
21458;SDS011;10891;49.350;19.386;2024-02-14T06:13:41;25.30;;;11.20;;
21458;SDS011;10891;49.350;19.386;2024-02-14T06:16:08;27.70;;;16.17;;
21458;SDS011;10891;49.350;19.386;2024-02-14T06:18:36;19.05;;;9.32;;
21458;SDS011;10891;49.350;19.386;2024-02-14T06:21:04;13.45;;;7.53;;
21458;SDS011;10891;49.350;19.386;2024-02-14T06:23:32;25.75;;;12.70;;
21458;SDS011;10891;49.350;19.386;2024-02-14T06:26:00;29.20;;;13.52;;
21458;SDS011;10891;49.350;19.386;2024-02-14T06:28:29;29.00;;;13.95;;
21458;SDS011;10891;49.350;19.386;2024-02-14T06:30:56;46.97;;;19.73;;
21458;SDS011;10891;49.350;19.386;2024-02-14T06:33:23;48.22;;;20.10;;
21458;SDS011;10891;49.350;19.386;2024-02-14T06:35:50;21.23;;;9.95;;
21458;SDS011;10891;49.350;19.386;2024-02-14T06:38:17;25.17;;;13.13;;
21458;SDS011;10891;49.350;19.386;2024-02-14T06:40:44;40.85;;;15.38;;
21458;SDS011;10891;49.350;19.386;2024-02-14T06:43:13;51.08;;;17.98;;
21458;SDS011;10891;49.350;19.386;2024-02-14T06:45:40;55.80;;;20.10;;
21458;SDS011;10891;49.350;19.386;2024-02-14T06:48:08;63.72;;;22.60;;
21458;SDS011;10891;49.350;19.386;2024-02-14T06:50:35;95.63;;;30.40;;
21458;SDS011;10891;49.350;19.386;2024-02-14T06:53:03;112.28;;;38.53;;
21458;SDS011;10891;49.350;19.386;2024-02-14T06:55:31;79.40;;;29.08;;
21458;SDS011;10891;49.350;19.386;2024-02-14T06:57:58;49.40;;;21.50;;
21458;SDS011;10891;49.350;19.386;2024-02-14T07:00:25;34.88;;;16.00;;
21458;SDS011;10891;49.350;19.386;2024-02-14T07:02:54;51.15;;;20.95;;
21458;SDS011;10891;49.350;19.386;2024-02-14T07:05:21;33.92;;;16.85;;
21458;SDS011;10891;49.350;19.386;2024-02-14T07:07:48;36.83;;;18.40;;
21458;SDS011;10891;49.350;19.386;2024-02-14T07:10:15;42.22;;;19.73;;
21458;SDS011;10891;49.350;19.386;2024-02-14T07:12:42;40.92;;;18.30;;
21458;SDS011;10891;49.350;19.386;2024-02-14T07:15:09;52.85;;;21.40;;
21458;SDS011;10891;49.350;19.386;2024-02-14T07:17:38;41.30;;;18.50;;
21458;SDS011;10891;49.350;19.386;2024-02-14T07:20:05;88.45;;;27.80;;
21458;SDS011;10891;49.350;19.386;2024-02-14T07:22:34;80.22;;;30.33;;
21458;SDS011;10891;49.350;19.386;2024-02-14T07:25:01;109.03;;;38.22;;
21458;SDS011;10891;49.350;19.386;2024-02-14T07:27:30;113.65;;;45.33;;
21458;SDS011;10891;49.350;19.386;2024-02-14T07:29:57;36.05;;;16.35;;
21458;SDS011;10891;49.350;19.386;2024-02-14T07:32:24;34.33;;;17.63;;
21458;SDS011;10891;49.350;19.386;2024-02-14T07:34:54;37.97;;;23.58;;
21458;SDS011;10891;49.350;19.386;2024-02-14T07:37:21;37.75;;;17.02;;
21458;SDS011;10891;49.350;19.386;2024-02-14T07:39:48;39.40;;;20.08;;
21458;SDS011;10891;49.350;19.386;2024-02-14T07:42:16;31.73;;;16.75;;
21458;SDS011;10891;49.350;19.386;2024-02-14T07:44:43;23.08;;;12.30;;
21458;SDS011;10891;49.350;19.386;2024-02-14T07:47:10;25.27;;;12.15;;
21458;SDS011;10891;49.350;19.386;2024-02-14T07:49:38;30.20;;;12.68;;
21458;SDS011;10891;49.350;19.386;2024-02-14T07:52:07;22.90;;;15.52;;
21458;SDS011;10891;49.350;19.386;2024-02-14T07:54:34;24.52;;;12.70;;
21458;SDS011;10891;49.350;19.386;2024-02-14T07:57:01;27.35;;;12.27;;
21458;SDS011;10891;49.350;19.386;2024-02-14T07:59:28;31.48;;;15.00;;
21458;SDS011;10891;49.350;19.386;2024-02-14T08:01:55;36.85;;;13.25;;
21458;SDS011;10891;49.350;19.386;2024-02-14T08:04:23;24.83;;;10.65;;
21458;SDS011;10891;49.350;19.386;2024-02-14T08:06:51;16.38;;;7.70;;
21458;SDS011;10891;49.350;19.386;2024-02-14T08:09:19;21.15;;;8.80;;
21458;SDS011;10891;49.350;19.386;2024-02-14T08:11:46;27.52;;;10.63;;
21458;SDS011;10891;49.350;19.386;2024-02-14T08:14:15;16.40;;;7.47;;
21458;SDS011;10891;49.350;19.386;2024-02-14T08:16:42;10.82;;;6.43;;
21458;SDS011;10891;49.350;19.386;2024-02-14T08:19:09;52.63;;;19.40;;
21458;SDS011;10891;49.350;19.386;2024-02-14T08:21:36;12.68;;;7.25;;
21458;SDS011;10891;49.350;19.386;2024-02-14T08:24:04;21.45;;;8.63;;
21458;SDS011;10891;49.350;19.386;2024-02-14T08:26:32;21.90;;;9.05;;
21458;SDS011;10891;49.350;19.386;2024-02-14T08:28:59;14.52;;;5.95;;
21458;SDS011;10891;49.350;19.386;2024-02-14T08:31:27;19.90;;;9.15;;
21458;SDS011;10891;49.350;19.386;2024-02-14T08:33:54;16.58;;;8.48;;
21458;SDS011;10891;49.350;19.386;2024-02-14T08:36:21;12.00;;;6.25;;
21458;SDS011;10891;49.350;19.386;2024-02-14T08:38:48;9.70;;;4.90;;
21458;SDS011;10891;49.350;19.386;2024-02-14T08:41:15;10.25;;;5.43;;
21458;SDS011;10891;49.350;19.386;2024-02-14T08:43:44;21.85;;;8.52;;
21458;SDS011;10891;49.350;19.386;2024-02-14T08:46:12;8.50;;;4.63;;
21458;SDS011;10891;49.350;19.386;2024-02-14T08:48:39;7.78;;;4.63;;
21458;SDS011;10891;49.350;19.386;2024-02-14T08:51:10;8.70;;;4.75;;
21458;SDS011;10891;49.350;19.386;2024-02-14T08:53:38;6.65;;;3.15;;
21458;SDS011;10891;49.350;19.386;2024-02-14T08:56:06;4.93;;;2.60;;
21458;SDS011;10891;49.350;19.386;2024-02-14T08:58:34;13.68;;;4.93;;
21458;SDS011;10891;49.350;19.386;2024-02-14T09:01:02;10.02;;;3.45;;
21458;SDS011;10891;49.350;19.386;2024-02-14T09:03:30;6.07;;;3.40;;
21458;SDS011;10891;49.350;19.386;2024-02-14T09:05:57;4.90;;;3.08;;
21458;SDS011;10891;49.350;19.386;2024-02-14T09:08:25;9.68;;;4.45;;
21458;SDS011;10891;49.350;19.386;2024-02-14T09:10:52;4.90;;;3.35;;
21458;SDS011;10891;49.350;19.386;2024-02-14T09:13:19;7.05;;;3.85;;
21458;SDS011;10891;49.350;19.386;2024-02-14T09:15:47;7.03;;;3.90;;
21458;SDS011;10891;49.350;19.386;2024-02-14T09:18:16;5.00;;;3.40;;
21458;SDS011;10891;49.350;19.386;2024-02-14T09:20:44;6.97;;;3.03;;
21458;SDS011;10891;49.350;19.386;2024-02-14T09:23:11;12.77;;;3.00;;
21458;SDS011;10891;49.350;19.386;2024-02-14T09:25:42;9.35;;;4.75;;
21458;SDS011;10891;49.350;19.386;2024-02-14T09:28:09;9.40;;;3.70;;
21458;SDS011;10891;49.350;19.386;2024-02-14T09:30:38;5.18;;;3.15;;
21458;SDS011;10891;49.350;19.386;2024-02-14T09:33:05;3.47;;;2.60;;
21458;SDS011;10891;49.350;19.386;2024-02-14T09:35:34;7.72;;;2.80;;
21458;SDS011;10891;49.350;19.386;2024-02-14T09:38:03;7.10;;;2.50;;
21458;SDS011;10891;49.350;19.386;2024-02-14T09:40:30;7.03;;;3.10;;
21458;SDS011;10891;49.350;19.386;2024-02-14T09:42:57;15.10;;;5.25;;
21458;SDS011;10891;49.350;19.386;2024-02-14T09:45:28;3.30;;;2.15;;
21458;SDS011;10891;49.350;19.386;2024-02-14T09:47:58;5.45;;;3.17;;
21458;SDS011;10891;49.350;19.386;2024-02-14T09:50:28;4.85;;;3.30;;
21458;SDS011;10891;49.350;19.386;2024-02-14T09:52:58;8.30;;;4.25;;
21458;SDS011;10891;49.350;19.386;2024-02-14T09:55:25;6.15;;;2.90;;
21458;SDS011;10891;49.350;19.386;2024-02-14T09:57:52;9.15;;;2.22;;
21458;SDS011;10891;49.350;19.386;2024-02-14T10:00:21;4.40;;;2.50;;
21458;SDS011;10891;49.350;19.386;2024-02-14T10:02:49;6.43;;;3.88;;
21458;SDS011;10891;49.350;19.386;2024-02-14T10:05:16;9.80;;;4.18;;
21458;SDS011;10891;49.350;19.386;2024-02-14T10:07:43;7.85;;;3.58;;
21458;SDS011;10891;49.350;19.386;2024-02-14T10:10:13;7.15;;;2.85;;
21458;SDS011;10891;49.350;19.386;2024-02-14T10:12:41;6.07;;;2.30;;
21458;SDS011;10891;49.350;19.386;2024-02-14T10:15:09;5.82;;;2.97;;
21458;SDS011;10891;49.350;19.386;2024-02-14T10:17:36;9.27;;;4.00;;
21458;SDS011;10891;49.350;19.386;2024-02-14T10:20:07;8.02;;;3.75;;
21458;SDS011;10891;49.350;19.386;2024-02-14T10:22:34;6.70;;;3.30;;
21458;SDS011;10891;49.350;19.386;2024-02-14T10:25:02;5.65;;;3.08;;
21458;SDS011;10891;49.350;19.386;2024-02-14T10:27:31;5.90;;;3.00;;
21458;SDS011;10891;49.350;19.386;2024-02-14T10:29:59;5.00;;;2.90;;
21458;SDS011;10891;49.350;19.386;2024-02-14T10:32:26;5.20;;;2.75;;
21458;SDS011;10891;49.350;19.386;2024-02-14T10:34:54;5.22;;;3.17;;
21458;SDS011;10891;49.350;19.386;2024-02-14T10:37:21;5.38;;;2.45;;
21458;SDS011;10891;49.350;19.386;2024-02-14T10:39:48;4.55;;;2.40;;
21458;SDS011;10891;49.350;19.386;2024-02-14T10:42:17;4.80;;;1.80;;
21458;SDS011;10891;49.350;19.386;2024-02-14T10:44:46;5.40;;;2.42;;
21458;SDS011;10891;49.350;19.386;2024-02-14T10:47:14;9.15;;;3.10;;
21458;SDS011;10891;49.350;19.386;2024-02-14T10:49:46;5.07;;;1.95;;
21458;SDS011;10891;49.350;19.386;2024-02-14T10:52:13;2.90;;;2.22;;
21458;SDS011;10891;49.350;19.386;2024-02-14T10:54:43;4.35;;;2.97;;
21458;SDS011;10891;49.350;19.386;2024-02-14T10:57:14;4.32;;;2.20;;
21458;SDS011;10891;49.350;19.386;2024-02-14T10:59:43;3.70;;;1.70;;
21458;SDS011;10891;49.350;19.386;2024-02-14T11:02:12;14.38;;;8.63;;
21458;SDS011;10891;49.350;19.386;2024-02-14T11:04:40;5.15;;;2.65;;
21458;SDS011;10891;49.350;19.386;2024-02-14T11:07:08;3.75;;;2.00;;
21458;SDS011;10891;49.350;19.386;2024-02-14T11:09:36;8.02;;;2.63;;
21458;SDS011;10891;49.350;19.386;2024-02-14T11:12:04;4.68;;;2.00;;
21458;SDS011;10891;49.350;19.386;2024-02-14T11:14:34;5.18;;;2.58;;
21458;SDS011;10891;49.350;19.386;2024-02-14T11:17:03;2.72;;;1.80;;
21458;SDS011;10891;49.350;19.386;2024-02-14T11:19:35;21.17;;;8.40;;
21458;SDS011;10891;49.350;19.386;2024-02-14T11:24:48;10.23;;;3.85;;
21458;SDS011;10891;49.350;19.386;2024-02-14T11:27:17;5.68;;;2.85;;
21458;SDS011;10891;49.350;19.386;2024-02-14T11:29:51;7.75;;;3.85;;
21458;SDS011;10891;49.350;19.386;2024-02-14T11:32:18;5.38;;;3.42;;
21458;SDS011;10891;49.350;19.386;2024-02-14T11:34:53;4.28;;;2.92;;
21458;SDS011;10891;49.350;19.386;2024-02-14T11:37:26;5.22;;;2.95;;
21458;SDS011;10891;49.350;19.386;2024-02-14T11:39:54;38.35;;;4.35;;
21458;SDS011;10891;49.350;19.386;2024-02-14T11:42:23;7.85;;;3.40;;
21458;SDS011;10891;49.350;19.386;2024-02-14T11:44:50;5.40;;;3.25;;
21458;SDS011;10891;49.350;19.386;2024-02-14T11:47:17;7.78;;;3.55;;
21458;SDS011;10891;49.350;19.386;2024-02-14T11:49:44;15.02;;;6.07;;
21458;SDS011;10891;49.350;19.386;2024-02-14T11:52:13;11.02;;;4.80;;
21458;SDS011;10891;49.350;19.386;2024-02-14T11:54:45;10.25;;;4.88;;
21458;SDS011;10891;49.350;19.386;2024-02-14T11:57:16;5.53;;;2.70;;
21458;SDS011;10891;49.350;19.386;2024-02-14T11:59:43;108.82;;;38.95;;
21458;SDS011;10891;49.350;19.386;2024-02-14T12:02:11;8.73;;;4.35;;
21458;SDS011;10891;49.350;19.386;2024-02-14T12:04:39;12.70;;;5.47;;
21458;SDS011;10891;49.350;19.386;2024-02-14T12:07:06;5.28;;;3.25;;
21458;SDS011;10891;49.350;19.386;2024-02-14T12:09:35;3.83;;;2.10;;
21458;SDS011;10891;49.350;19.386;2024-02-14T12:12:03;8.50;;;4.10;;
21458;SDS011;10891;49.350;19.386;2024-02-14T12:14:32;11.02;;;4.55;;
21458;SDS011;10891;49.350;19.386;2024-02-14T12:16:59;4.70;;;2.38;;
21458;SDS011;10891;49.350;19.386;2024-02-14T12:19:28;6.68;;;2.90;;
21458;SDS011;10891;49.350;19.386;2024-02-14T12:21:55;7.07;;;2.30;;
21458;SDS011;10891;49.350;19.386;2024-02-14T12:24:26;9.70;;;5.40;;
21458;SDS011;10891;49.350;19.386;2024-02-14T12:26:56;9.13;;;4.53;;
21458;SDS011;10891;49.350;19.386;2024-02-14T12:29:23;14.35;;;5.97;;
21458;SDS011;10891;49.350;19.386;2024-02-14T12:31:52;30.70;;;12.32;;
21458;SDS011;10891;49.350;19.386;2024-02-14T12:34:19;73.15;;;32.67;;
21458;SDS011;10891;49.350;19.386;2024-02-14T12:36:46;8.07;;;3.63;;
21458;SDS011;10891;49.350;19.386;2024-02-14T12:39:13;17.10;;;8.45;;
21458;SDS011;10891;49.350;19.386;2024-02-14T12:41:41;7.93;;;4.78;;
21458;SDS011;10891;49.350;19.386;2024-02-14T12:44:09;5.28;;;2.60;;
21458;SDS011;10891;49.350;19.386;2024-02-14T12:46:36;8.63;;;3.22;;
21458;SDS011;10891;49.350;19.386;2024-02-14T12:49:04;4.32;;;2.72;;
21458;SDS011;10891;49.350;19.386;2024-02-14T12:51:31;10.75;;;4.88;;
21458;SDS011;10891;49.350;19.386;2024-02-14T12:53:58;8.20;;;2.67;;
21458;SDS011;10891;49.350;19.386;2024-02-14T12:56:25;23.00;;;9.13;;
21458;SDS011;10891;49.350;19.386;2024-02-14T12:58:53;37.28;;;18.60;;
21458;SDS011;10891;49.350;19.386;2024-02-14T13:01:21;8.50;;;4.57;;
21458;SDS011;10891;49.350;19.386;2024-02-14T13:03:49;8.98;;;4.30;;
21458;SDS011;10891;49.350;19.386;2024-02-14T13:06:16;17.50;;;8.15;;
21458;SDS011;10891;49.350;19.386;2024-02-14T13:08:43;10.02;;;5.40;;
21458;SDS011;10891;49.350;19.386;2024-02-14T13:11:10;5.32;;;2.90;;
21458;SDS011;10891;49.350;19.386;2024-02-14T13:13:39;8.20;;;4.20;;
21458;SDS011;10891;49.350;19.386;2024-02-14T13:16:07;9.13;;;4.75;;
21458;SDS011;10891;49.350;19.386;2024-02-14T13:18:36;8.43;;;4.35;;
21458;SDS011;10891;49.350;19.386;2024-02-14T13:21:03;11.38;;;4.05;;
21458;SDS011;10891;49.350;19.386;2024-02-14T13:23:30;10.85;;;5.35;;
21458;SDS011;10891;49.350;19.386;2024-02-14T13:25:57;5.35;;;2.55;;
21458;SDS011;10891;49.350;19.386;2024-02-14T13:28:25;11.98;;;6.10;;
21458;SDS011;10891;49.350;19.386;2024-02-14T13:30:52;8.63;;;4.75;;
21458;SDS011;10891;49.350;19.386;2024-02-14T13:33:19;11.23;;;4.50;;
21458;SDS011;10891;49.350;19.386;2024-02-14T13:35:47;9.40;;;4.88;;
21458;SDS011;10891;49.350;19.386;2024-02-14T13:38:15;8.80;;;4.00;;
21458;SDS011;10891;49.350;19.386;2024-02-14T13:40:42;15.57;;;5.60;;
21458;SDS011;10891;49.350;19.386;2024-02-14T13:43:09;6.38;;;3.15;;
21458;SDS011;10891;49.350;19.386;2024-02-14T13:45:40;6.50;;;3.40;;
21458;SDS011;10891;49.350;19.386;2024-02-14T13:48:08;18.55;;;7.78;;
21458;SDS011;10891;49.350;19.386;2024-02-14T13:50:35;13.82;;;6.00;;
21458;SDS011;10891;49.350;19.386;2024-02-14T13:53:04;7.82;;;3.72;;
21458;SDS011;10891;49.350;19.386;2024-02-14T13:55:31;6.25;;;3.53;;
21458;SDS011;10891;49.350;19.386;2024-02-14T13:57:59;6.95;;;3.50;;
21458;SDS011;10891;49.350;19.386;2024-02-14T14:00:26;8.05;;;3.92;;
21458;SDS011;10891;49.350;19.386;2024-02-14T14:02:53;6.38;;;2.97;;
21458;SDS011;10891;49.350;19.386;2024-02-14T14:05:20;6.35;;;3.60;;
21458;SDS011;10891;49.350;19.386;2024-02-14T14:07:48;19.08;;;4.95;;
21458;SDS011;10891;49.350;19.386;2024-02-14T14:10:16;7.32;;;3.25;;
21458;SDS011;10891;49.350;19.386;2024-02-14T14:12:43;15.82;;;8.73;;
21458;SDS011;10891;49.350;19.386;2024-02-14T14:15:11;27.02;;;12.70;;
21458;SDS011;10891;49.350;19.386;2024-02-14T14:17:38;27.02;;;13.40;;
21458;SDS011;10891;49.350;19.386;2024-02-14T14:20:05;42.83;;;17.52;;
21458;SDS011;10891;49.350;19.386;2024-02-14T14:22:33;36.38;;;14.40;;
21458;SDS011;10891;49.350;19.386;2024-02-14T14:25:02;12.63;;;5.43;;
21458;SDS011;10891;49.350;19.386;2024-02-14T14:27:31;7.35;;;3.45;;